Time;durP1;ratioP1;P1;durP2;ratioP2;P2;SDS_P1;SDS_P2;PMS_P1;PMS_P2;Temp;Humidity;BMP_temperature;BMP_pressure;BME280_temperature;BME280_humidity;BME280_pressure;Samples;Min_cycle;Max_cycle;Signal;HPM_P1;HPM_P2
2022/05/28 00:00:41;;;;;;;;;;;11.20;99.90;;;;;;4985494;28;20403;-79
2022/05/28 00:03:07;;;;;;;;;;;11.20;99.90;;;;;;5001476;28;19933;-80
2022/05/28 00:05:33;;;;;;;;;;;11.30;99.90;;;;;;4985980;28;19940;-79
2022/05/28 00:07:58;;;;;;;;;;;11.30;99.90;;;;;;4990101;28;19995;-79
2022/05/28 00:10:24;;;;;;;;;;;11.40;99.90;;;;;;4985871;28;19933;-80
2022/05/28 00:12:50;;;;;;;;;;;11.40;99.90;;;;;;4982436;28;19990;-80
2022/05/28 00:15:16;;;;;;;;;;;11.40;99.90;;;;;;4986958;28;19936;-80
2022/05/28 00:17:41;;;;;;;;;;;11.50;99.90;;;;;;4999601;28;20020;-79
2022/05/28 00:20:08;;;;;;;;;;;11.50;99.90;;;;;;4981942;28;19935;-79
2022/05/28 00:22:40;;;;;;;;;;;11.60;99.90;;;;;;4988665;28;19939;-80
2022/05/28 00:25:07;;;;;;;;;;;11.60;99.90;;;;;;4980740;28;19952;-79
2022/05/28 00:27:33;;;;;;;;;;;11.70;99.90;;;;;;4972553;28;20005;-79
2022/05/28 00:29:58;;;;;;;;;;;11.80;99.90;;;;;;4991352;28;19924;-80
2022/05/28 00:32:24;;;;;;;;;;;11.80;99.90;;;;;;4980522;28;20523;-80
2022/05/28 00:34:49;;;;;;;;;;;11.80;99.90;;;;;;4956373;28;19933;-80
2022/05/28 00:37:15;;;;;;;;;;;11.90;99.90;;;;;;4970822;28;19929;-80
2022/05/28 00:39:41;;;;;;;;;;;12.00;99.90;;;;;;4973131;28;19933;-81
2022/05/28 00:42:06;;;;;;;;;;;11.90;99.90;;;;;;5003040;28;20494;-79
2022/05/28 00:44:32;;;;;;;;;;;11.80;99.90;;;;;;5002522;28;20279;-78
2022/05/28 00:46:59;;;;;;;;;;;11.70;99.90;;;;;;5000554;28;19929;-78
2022/05/28 00:49:27;;;;;;;;;;;11.70;99.90;;;;;;4985010;28;20429;-79
2022/05/28 00:51:54;;;;;;;;;;;11.50;99.90;;;;;;4996939;28;19929;-79
2022/05/28 00:54:20;;;;;;;;;;;11.20;99.90;;;;;;5001824;28;19925;-77
2022/05/28 00:56:46;;;;;;;;;;;11.00;99.90;;;;;;5000850;28;19990;-79
2022/05/28 00:59:12;;;;;;;;;;;10.90;99.90;;;;;;5002442;28;19937;-78
2022/05/28 01:01:41;;;;;;;;;;;11.00;99.90;;;;;;5004052;28;19940;-80
2022/05/28 01:04:06;;;;;;;;;;;10.90;99.90;;;;;;4999697;28;20683;-79
2022/05/28 01:06:35;;;;;;;;;;;10.80;99.90;;;;;;5002082;28;19929;-78
2022/05/28 01:09:19;;;;;;;;;;;10.80;99.90;;;;;;5002172;28;19933;-78
2022/05/28 01:11:47;;;;;;;;;;;10.80;99.90;;;;;;4980086;28;19976;-79
2022/05/28 01:14:31;;;;;;;;;;;10.80;99.90;;;;;;5005939;28;19940;-79
2022/05/28 01:16:59;;;;;;;;;;;10.80;99.90;;;;;;5004872;28;20138;-80
2022/05/28 01:19:28;;;;;;;;;;;10.80;99.90;;;;;;5004962;28;19936;-79
2022/05/28 01:21:56;;;;;;;;;;;10.90;99.90;;;;;;5005071;28;20875;-77
2022/05/28 01:24:45;;;;;;;;;;;10.80;99.90;;;;;;4989482;28;19929;-78
2022/05/28 01:27:13;;;;;;;;;;;10.80;99.90;;;;;;4991933;28;20294;-78
2022/05/28 01:29:42;;;;;;;;;;;10.80;99.90;;;;;;4989250;28;20010;-79
2022/05/28 01:32:08;;;;;;;;;;;10.80;99.90;;;;;;4989813;28;19935;-78
2022/05/28 01:34:34;;;;;;;;;;;10.80;99.90;;;;;;5005232;28;20467;-77
2022/05/28 01:37:01;;;;;;;;;;;10.80;99.90;;;;;;5005354;28;20375;-79
2022/05/28 01:39:28;;;;;;;;;;;10.70;99.90;;;;;;4978016;28;19929;-78
2022/05/28 01:41:54;;;;;;;;;;;10.70;99.90;;;;;;5007982;28;19933;-78
2022/05/28 01:44:21;;;;;;;;;;;10.70;99.90;;;;;;4991017;28;19933;-78
2022/05/28 01:46:47;;;;;;;;;;;10.70;99.90;;;;;;5004005;28;20211;-78
2022/05/28 01:49:15;;;;;;;;;;;10.60;99.90;;;;;;4990263;28;20625;-79
2022/05/28 01:51:42;;;;;;;;;;;10.60;99.90;;;;;;4970937;28;20032;-79
2022/05/28 01:54:11;;;;;;;;;;;10.50;99.90;;;;;;4987756;28;19929;-79
2022/05/28 01:56:38;;;;;;;;;;;10.50;99.90;;;;;;5008892;28;20394;-79
2022/05/28 01:59:04;;;;;;;;;;;10.50;99.90;;;;;;5004741;28;19933;-78
2022/05/28 02:01:30;;;;;;;;;;;10.40;99.90;;;;;;5010232;28;19940;-79
2022/05/28 02:03:57;;;;;;;;;;;10.40;99.90;;;;;;5002421;28;19925;-79
2022/05/28 02:06:24;;;;;;;;;;;10.40;99.90;;;;;;4985834;28;19928;-79
2022/05/28 02:08:51;;;;;;;;;;;10.40;99.90;;;;;;4987971;28;19932;-79
2022/05/28 02:11:18;;;;;;;;;;;10.40;99.90;;;;;;4993096;28;19933;-79
2022/05/28 02:13:50;;;;;;;;;;;10.30;99.90;;;;;;5008662;28;19929;-79
2022/05/28 02:16:17;;;;;;;;;;;10.30;99.90;;;;;;4987486;28;19925;-78
2022/05/28 02:18:49;;;;;;;;;;;10.30;99.90;;;;;;5001619;28;20468;-79
2022/05/28 02:21:32;;;;;;;;;;;10.30;99.90;;;;;;5001312;28;20755;-79
2022/05/28 02:24:04;;;;;;;;;;;10.20;99.90;;;;;;4992916;28;19928;-80
2022/05/28 02:26:33;;;;;;;;;;;10.20;99.90;;;;;;4988706;28;20338;-79
2022/05/28 02:28:59;;;;;;;;;;;10.20;99.90;;;;;;5001637;28;19929;-79
2022/05/28 02:31:26;;;;;;;;;;;10.20;99.90;;;;;;4987014;28;19929;-79
2022/05/28 02:33:52;;;;;;;;;;;10.20;99.90;;;;;;5003720;28;19933;-79
2022/05/28 02:36:18;;;;;;;;;;;10.10;99.90;;;;;;4987915;28;19932;-78
2022/05/28 02:38:44;;;;;;;;;;;10.10;99.90;;;;;;4983745;28;20766;-79
2022/05/28 02:41:10;;;;;;;;;;;10.00;99.90;;;;;;5017579;28;19936;-78
2022/05/28 02:43:36;;;;;;;;;;;10.10;99.90;;;;;;4992932;28;20354;-79
2022/05/28 02:46:02;;;;;;;;;;;10.00;99.90;;;;;;5001477;28;20221;-79
2022/05/28 02:48:28;;;;;;;;;;;10.00;99.90;;;;;;5022967;28;19929;-79
2022/05/28 02:50:53;;;;;;;;;;;9.90;99.90;;;;;;5001054;28;19937;-79
2022/05/28 02:53:19;;;;;;;;;;;9.90;99.90;;;;;;5022153;28;19936;-79
2022/05/28 02:55:45;;;;;;;;;;;9.80;99.90;;;;;;5016549;28;19936;-79
2022/05/28 02:58:10;;;;;;;;;;;9.80;99.90;;;;;;5002246;28;19929;-79
2022/05/28 03:00:36;;;;;;;;;;;9.80;99.90;;;;;;5004675;28;20398;-79
2022/05/28 03:03:02;;;;;;;;;;;9.80;99.90;;;;;;5001154;28;19933;-79
2022/05/28 03:05:28;;;;;;;;;;;9.80;99.90;;;;;;5018624;28;19929;-78
2022/05/28 03:07:53;;;;;;;;;;;9.70;99.90;;;;;;5001563;28;19933;-78
2022/05/28 03:10:19;;;;;;;;;;;9.70;99.90;;;;;;5017880;28;19964;-78
2022/05/28 03:12:45;;;;;;;;;;;9.70;99.90;;;;;;5016602;28;19936;-79
2022/05/28 03:15:10;;;;;;;;;;;9.70;99.90;;;;;;5017148;28;19929;-78
2022/05/28 03:17:36;;;;;;;;;;;9.70;99.90;;;;;;5018024;28;19929;-79
2022/05/28 03:20:03;;;;;;;;;;;9.70;99.90;;;;;;5017613;28;19928;-79
2022/05/28 03:22:28;;;;;;;;;;;9.60;99.90;;;;;;5018556;28;19929;-79
2022/05/28 03:24:54;;;;;;;;;;;9.60;99.90;;;;;;5015097;28;19925;-79
2022/05/28 03:27:20;;;;;;;;;;;9.60;99.90;;;;;;5019056;28;19924;-78
2022/05/28 03:29:46;;;;;;;;;;;9.60;99.90;;;;;;5011861;28;20314;-78
2022/05/28 03:32:11;;;;;;;;;;;9.60;99.90;;;;;;4989683;28;19937;-79
2022/05/28 03:34:37;;;;;;;;;;;9.60;99.90;;;;;;5018542;28;20023;-78
2022/05/28 03:37:03;;;;;;;;;;;9.50;99.90;;;;;;4998078;28;20391;-79
2022/05/28 03:39:29;;;;;;;;;;;9.50;99.90;;;;;;5000483;28;19925;-79
2022/05/28 03:41:54;;;;;;;;;;;9.50;99.90;;;;;;4997470;28;20359;-78
2022/05/28 03:44:20;;;;;;;;;;;9.50;99.90;;;;;;5000787;28;19987;-78
2022/05/28 03:46:46;;;;;;;;;;;9.50;99.90;;;;;;5014490;28;19937;-79
2022/05/28 03:49:18;;;;;;;;;;;9.50;99.90;;;;;;5016344;28;20325;-79
2022/05/28 03:51:44;;;;;;;;;;;9.50;99.90;;;;;;5017223;28;19939;-79
2022/05/28 03:54:09;;;;;;;;;;;9.50;99.90;;;;;;5010092;28;19929;-78
2022/05/28 03:56:36;;;;;;;;;;;9.40;99.90;;;;;;5013561;28;20027;-79
2022/05/28 03:59:04;;;;;;;;;;;9.50;99.90;;;;;;5016373;28;19933;-78
2022/05/28 04:01:29;;;;;;;;;;;9.50;99.90;;;;;;4995638;28;19936;-78
2022/05/28 04:03:55;;;;;;;;;;;9.50;99.90;;;;;;5015659;28;19929;-78
2022/05/28 04:06:22;;;;;;;;;;;9.50;99.90;;;;;;5014334;28;20383;-79
2022/05/28 04:08:47;;;;;;;;;;;9.50;99.90;;;;;;5015790;28;19955;-79
2022/05/28 04:11:14;;;;;;;;;;;9.50;99.90;;;;;;5014522;28;19929;-79
2022/05/28 04:13:39;;;;;;;;;;;9.50;99.90;;;;;;5006981;28;19936;-80
2022/05/28 04:16:05;;;;;;;;;;;9.50;99.90;;;;;;5010892;28;19936;-80
2022/05/28 04:18:31;;;;;;;;;;;9.50;99.90;;;;;;4996446;28;19940;-80
2022/05/28 04:20:56;;;;;;;;;;;9.60;99.90;;;;;;5014701;28;19929;-80
2022/05/28 04:23:22;;;;;;;;;;;9.60;99.90;;;;;;5016150;28;20302;-79
2022/05/28 04:25:48;;;;;;;;;;;9.60;99.90;;;;;;4997757;28;19995;-81
2022/05/28 04:28:13;;;;;;;;;;;9.60;99.90;;;;;;5015309;28;20048;-79
2022/05/28 04:30:39;;;;;;;;;;;9.70;99.90;;;;;;5000627;28;19990;-80
2022/05/28 04:33:04;;;;;;;;;;;9.80;99.90;;;;;;5003033;28;20390;-79
2022/05/28 04:35:30;;;;;;;;;;;9.80;99.90;;;;;;4998621;28;19929;-80
2022/05/28 04:37:56;;;;;;;;;;;9.90;99.90;;;;;;4999095;28;19979;-80
2022/05/28 04:40:21;;;;;;;;;;;10.00;99.90;;;;;;5014839;28;20394;-80
2022/05/28 04:42:47;;;;;;;;;;;10.10;99.90;;;;;;4999541;28;19961;-81
2022/05/28 04:45:12;;;;;;;;;;;10.40;99.90;;;;;;5006612;28;19937;-79
2022/05/28 04:47:38;;;;;;;;;;;11.80;99.90;;;;;;4983666;28;20468;-80
2022/05/28 04:50:04;;;;;;;;;;;11.70;99.90;;;;;;5011017;28;19929;-80
2022/05/28 04:52:30;;;;;;;;;;;13.20;99.90;;;;;;5021861;28;20429;-80
2022/05/28 04:54:55;;;;;;;;;;;12.20;99.90;;;;;;4998597;28;19929;-80
2022/05/28 04:57:21;;;;;;;;;;;13.80;99.90;;;;;;5015065;28;19929;-80
2022/05/28 04:59:47;;;;;;;;;;;15.00;99.90;;;;;;4994588;28;19929;-80
2022/05/28 05:02:12;;;;;;;;;;;15.50;99.90;;;;;;5011147;28;19933;-81
2022/05/28 05:04:38;;;;;;;;;;;16.80;99.90;;;;;;5004434;28;20067;-81
2022/05/28 05:07:04;;;;;;;;;;;17.10;99.90;;;;;;5007954;28;20436;-81
2022/05/28 05:09:29;;;;;;;;;;;17.70;99.90;;;;;;5004908;28;19925;-81
2022/05/28 05:11:55;;;;;;;;;;;17.60;99.90;;;;;;5008398;28;19932;-81
2022/05/28 05:14:20;;;;;;;;;;;18.20;99.90;;;;;;5009400;28;20704;-82
2022/05/28 05:16:46;;;;;;;;;;;18.70;99.90;;;;;;5008591;28;19929;-80
2022/05/28 05:19:12;;;;;;;;;;;18.90;99.90;;;;;;5005350;28;20028;-82
2022/05/28 05:21:37;;;;;;;;;;;19.50;99.90;;;;;;4988974;28;19929;-81
2022/05/28 05:24:04;;;;;;;;;;;18.90;99.90;;;;;;5009345;28;19941;-81
2022/05/28 05:26:29;;;;;;;;;;;16.50;99.90;;;;;;4991671;28;19925;-80
2022/05/28 05:28:55;;;;;;;;;;;15.60;99.90;;;;;;4988751;28;20365;-81
2022/05/28 05:31:20;;;;;;;;;;;15.90;99.90;;;;;;5011202;28;19935;-79
2022/05/28 05:33:46;;;;;;;;;;;17.40;99.90;;;;;;5006450;28;19971;-81
2022/05/28 05:36:12;;;;;;;;;;;18.00;99.90;;;;;;4972655;28;19934;-81
2022/05/28 05:38:37;;;;;;;;;;;18.20;99.90;;;;;;4985091;28;19929;-81
2022/05/28 05:41:03;;;;;;;;;;;16.70;99.90;;;;;;5003137;28;20011;-80
2022/05/28 05:43:29;;;;;;;;;;;15.70;99.90;;;;;;5005469;28;19957;-80
2022/05/28 05:46:00;;;;;;;;;;;15.00;99.90;;;;;;5002025;28;19929;-81
2022/05/28 05:48:26;;;;;;;;;;;14.10;99.90;;;;;;4998319;28;20302;-81
2022/05/28 05:50:51;;;;;;;;;;;14.00;99.90;;;;;;5024049;28;20816;-81
2022/05/28 05:53:17;;;;;;;;;;;14.30;99.90;;;;;;5019027;28;19929;-80
2022/05/28 05:55:43;;;;;;;;;;;14.60;99.90;;;;;;5021650;28;19976;-81
2022/05/28 05:58:09;;;;;;;;;;;14.20;99.90;;;;;;5014079;28;20044;-80
2022/05/28 06:00:35;;;;;;;;;;;13.70;99.90;;;;;;5024206;28;19975;-80
2022/05/28 06:03:00;;;;;;;;;;;13.50;99.90;;;;;;4999429;28;20617;-80
2022/05/28 06:05:26;;;;;;;;;;;13.30;99.90;;;;;;5022111;28;20584;-79
2022/05/28 06:07:51;;;;;;;;;;;13.10;99.90;;;;;;5008753;28;19933;-80
2022/05/28 06:10:17;;;;;;;;;;;12.90;99.90;;;;;;5021580;28;19929;-80
2022/05/28 06:12:43;;;;;;;;;;;12.90;99.90;;;;;;5028087;28;19929;-81
2022/05/28 06:15:09;;;;;;;;;;;12.90;99.90;;;;;;5010262;28;20015;-80
2022/05/28 06:17:35;;;;;;;;;;;13.30;99.90;;;;;;5027432;28;20009;-83
2022/05/28 06:20:09;;;;;;;;;;;13.40;99.90;;;;;;5030096;28;19928;-80
2022/05/28 06:22:34;;;;;;;;;;;13.30;99.90;;;;;;5028001;28;19968;-81
2022/05/28 06:25:00;;;;;;;;;;;13.30;99.90;;;;;;5027213;28;20003;-80
2022/05/28 06:27:25;;;;;;;;;;;13.50;99.90;;;;;;5028279;28;19928;-78
2022/05/28 06:29:52;;;;;;;;;;;13.30;99.90;;;;;;5028247;28;20737;-79
2022/05/28 06:32:18;;;;;;;;;;;13.70;99.90;;;;;;5025139;28;19929;-80
2022/05/28 06:34:44;;;;;;;;;;;14.30;99.90;;;;;;5025714;28;19932;-83
2022/05/28 06:37:09;;;;;;;;;;;14.00;99.90;;;;;;5026700;28;19932;-78
2022/05/28 06:39:35;;;;;;;;;;;13.90;99.90;;;;;;5025817;28;20032;-81
2022/05/28 06:42:02;;;;;;;;;;;14.00;99.90;;;;;;5025598;28;20035;-81
2022/05/28 06:44:27;;;;;;;;;;;14.00;99.90;;;;;;4994459;28;19928;-80
2022/05/28 06:46:53;;;;;;;;;;;13.90;99.90;;;;;;5009742;28;19939;-78
2022/05/28 06:49:18;;;;;;;;;;;13.80;99.90;;;;;;5026949;28;19929;-80
2022/05/28 06:51:44;;;;;;;;;;;13.70;99.90;;;;;;5010226;28;19939;-81
2022/05/28 06:54:10;;;;;;;;;;;13.60;99.90;;;;;;5026769;28;20390;-83
2022/05/28 06:56:35;;;;;;;;;;;13.70;99.90;;;;;;5026901;28;19944;-82
2022/05/28 06:59:01;;;;;;;;;;;13.80;99.90;;;;;;5009797;28;19936;-83
2022/05/28 07:01:27;;;;;;;;;;;13.80;99.90;;;;;;5009172;28;19928;-80
2022/05/28 07:03:52;;;;;;;;;;;14.00;99.90;;;;;;5025243;28;19968;-80
2022/05/28 07:06:18;;;;;;;;;;;14.70;99.90;;;;;;4991828;28;20151;-81
2022/05/28 07:08:43;;;;;;;;;;;14.80;99.90;;;;;;5025772;28;19932;-77
2022/05/28 07:11:10;;;;;;;;;;;15.30;99.90;;;;;;5027290;28;20627;-81
2022/05/28 07:13:36;;;;;;;;;;;14.90;99.90;;;;;;5025733;28;19949;-80
2022/05/28 07:16:05;;;;;;;;;;;15.30;99.90;;;;;;5026885;28;19932;-80
2022/05/28 07:18:31;;;;;;;;;;;15.10;99.90;;;;;;4991137;28;19933;-80
2022/05/28 07:20:56;;;;;;;;;;;15.40;99.90;;;;;;5027745;28;19928;-82
2022/05/28 07:23:24;;;;;;;;;;;14.80;99.90;;;;;;5008963;28;19933;-81
2022/05/28 07:25:56;;;;;;;;;;;14.80;99.90;;;;;;5026436;28;19925;-80
2022/05/28 07:28:25;;;;;;;;;;;14.30;99.90;;;;;;5008600;28;19936;-80
2022/05/28 07:30:51;;;;;;;;;;;14.20;99.90;;;;;;5010572;28;19929;-80
2022/05/28 07:33:17;;;;;;;;;;;14.00;99.90;;;;;;5010532;28;19929;-80
2022/05/28 07:35:43;;;;;;;;;;;13.90;99.90;;;;;;5025803;28;19939;-79
2022/05/28 07:38:08;;;;;;;;;;;13.90;99.90;;;;;;5025697;28;19954;-77
2022/05/28 07:40:34;;;;;;;;;;;14.00;99.90;;;;;;5025624;28;19990;-80
2022/05/28 07:43:00;;;;;;;;;;;13.70;99.90;;;;;;5024870;28;19939;-80
2022/05/28 07:45:25;;;;;;;;;;;13.40;99.90;;;;;;5010726;28;20048;-82
2022/05/28 07:47:51;;;;;;;;;;;13.50;99.90;;;;;;5010285;28;20374;-81
2022/05/28 07:50:17;;;;;;;;;;;13.30;99.90;;;;;;5010945;28;20783;-81
2022/05/28 07:52:44;;;;;;;;;;;13.10;99.90;;;;;;5027661;28;20302;-78
2022/05/28 07:55:12;;;;;;;;;;;13.10;99.90;;;;;;5011223;28;20423;-78
2022/05/28 07:57:37;;;;;;;;;;;13.00;99.90;;;;;;5010637;28;19932;-80
2022/05/28 08:00:03;;;;;;;;;;;13.10;99.90;;;;;;5026781;28;19929;-80
2022/05/28 08:02:29;;;;;;;;;;;13.10;99.90;;;;;;5024663;28;19928;-80
2022/05/28 08:04:54;;;;;;;;;;;12.70;99.90;;;;;;5022301;28;19964;-79
2022/05/28 08:07:20;;;;;;;;;;;12.70;99.90;;;;;;5020797;28;19928;-80
2022/05/28 08:09:46;;;;;;;;;;;12.70;99.90;;;;;;5018026;28;19979;-80
2022/05/28 08:12:11;;;;;;;;;;;12.80;99.90;;;;;;5021506;28;19940;-80
2022/05/28 08:14:37;;;;;;;;;;;12.90;99.90;;;;;;5025858;28;19928;-79
2022/05/28 08:17:02;;;;;;;;;;;12.70;99.90;;;;;;5024598;28;19936;-79
2022/05/28 08:19:28;;;;;;;;;;;12.80;99.90;;;;;;5008514;28;20366;-79
2022/05/28 08:24:38;;;;;;;;;;;12.80;99.90;;;;;;5025029;28;19929;-76
2022/05/28 08:27:04;;;;;;;;;;;12.90;99.90;;;;;;5008092;28;19929;-80
2022/05/28 08:29:29;;;;;;;;;;;13.30;99.90;;;;;;5023759;28;19935;-80
2022/05/28 08:31:56;;;;;;;;;;;13.50;99.90;;;;;;5025086;28;20600;-79
2022/05/28 08:34:21;;;;;;;;;;;13.90;99.90;;;;;;5005822;28;20935;-79
2022/05/28 08:36:47;;;;;;;;;;;13.80;99.90;;;;;;5006474;28;19936;-80
2022/05/28 08:39:13;;;;;;;;;;;14.30;99.90;;;;;;5022825;28;19940;-80
2022/05/28 08:41:48;;;;;;;;;;;14.60;99.90;;;;;;5023439;28;19935;-76
2022/05/28 08:44:16;;;;;;;;;;;14.60;99.90;;;;;;5009405;28;19929;-80
2022/05/28 08:46:43;;;;;;;;;;;15.10;99.90;;;;;;5007709;28;20390;-79
2022/05/28 08:49:10;;;;;;;;;;;15.30;99.90;;;;;;5023227;28;20043;-80
2022/05/28 08:51:53;;;;;;;;;;;15.50;99.90;;;;;;5026522;28;19928;-79
2022/05/28 08:54:28;;;;;;;;;;;15.70;99.90;;;;;;5009573;28;22659;-82
2022/05/28 08:56:56;;;;;;;;;;;16.60;99.90;;;;;;5009549;28;19932;-82
2022/05/28 08:59:29;;;;;;;;;;;17.00;99.90;;;;;;5025165;28;19964;-79
2022/05/28 09:01:56;;;;;;;;;;;16.40;99.90;;;;;;5025713;28;19929;-80
2022/05/28 09:04:24;;;;;;;;;;;15.90;99.90;;;;;;5025338;28;20015;-79
2022/05/28 09:06:53;;;;;;;;;;;16.00;99.90;;;;;;5009066;28;20455;-80
2022/05/28 09:09:24;;;;;;;;;;;15.80;99.90;;;;;;5006998;28;19939;-81
2022/05/28 09:12:09;;;;;;;;;;;15.70;99.90;;;;;;5009229;28;19979;-79
2022/05/28 09:14:35;;;;;;;;;;;15.70;99.90;;;;;;5025393;28;19928;-78
2022/05/28 09:17:06;;;;;;;;;;;15.80;99.90;;;;;;5023305;28;19935;-80
2022/05/28 09:19:34;;;;;;;;;;;15.70;99.90;;;;;;5026693;28;19995;-80
2022/05/28 09:22:00;;;;;;;;;;;16.40;99.90;;;;;;5026670;28;19940;-80
2022/05/28 09:24:27;;;;;;;;;;;16.70;99.90;;;;;;5007334;28;20400;-82
2022/05/28 09:26:53;;;;;;;;;;;16.30;99.90;;;;;;5016598;28;20166;-80
2022/05/28 09:29:18;;;;;;;;;;;16.50;99.90;;;;;;5016053;28;20527;-81
2022/05/28 09:31:50;;;;;;;;;;;16.40;99.90;;;;;;5024776;28;20016;-79
2022/05/28 09:34:28;;;;;;;;;;;15.90;99.90;;;;;;5006105;28;20121;-79
2022/05/28 09:36:54;;;;;;;;;;;15.50;99.90;;;;;;5027380;28;19933;-79
2022/05/28 09:39:28;;;;;;;;;;;14.90;99.90;;;;;;5025871;28;19935;-78
2022/05/28 09:42:12;;;;;;;;;;;14.50;99.90;;;;;;5008874;28;19933;-77
2022/05/28 09:44:44;;;;;;;;;;;14.60;99.90;;;;;;5024547;28;19982;-79
2022/05/28 09:47:11;;;;;;;;;;;14.50;99.90;;;;;;5010395;28;19929;-79
2022/05/28 09:49:53;;;;;;;;;;;15.00;99.90;;;;;;5011358;28;19951;-79
2022/05/28 09:52:21;;;;;;;;;;;14.90;99.90;;;;;;5028222;28;19929;-79
2022/05/28 09:54:47;;;;;;;;;;;15.10;99.90;;;;;;5023538;28;20349;-81
2022/05/28 09:57:27;;;;;;;;;;;15.20;99.90;;;;;;5015735;28;19940;-79
2022/05/28 09:59:55;;;;;;;;;;;15.00;99.90;;;;;;5016508;28;19971;-80
2022/05/28 10:02:21;;;;;;;;;;;14.70;99.90;;;;;;4999335;28;20871;-80
2022/05/28 10:05:08;;;;;;;;;;;14.50;99.90;;;;;;5016880;28;19968;-79
2022/05/28 10:07:45;;;;;;;;;;;14.10;99.90;;;;;;5016034;28;19975;-78
2022/05/28 10:10:32;;;;;;;;;;;13.90;99.90;;;;;;5012801;28;20032;-80
2022/05/28 10:13:06;;;;;;;;;;;13.90;99.90;;;;;;5014355;28;19928;-81
2022/05/28 10:15:34;;;;;;;;;;;15.10;99.90;;;;;;4999126;28;19942;-78
2022/05/28 10:18:07;;;;;;;;;;;15.80;99.90;;;;;;5013896;28;19932;-79
2022/05/28 10:20:33;;;;;;;;;;;16.10;99.90;;;;;;5015031;28;19928;-79
2022/05/28 10:23:02;;;;;;;;;;;17.00;99.90;;;;;;4997029;28;19939;-79
2022/05/28 10:25:34;;;;;;;;;;;16.70;99.90;;;;;;5017220;28;20386;-80
2022/05/28 10:27:59;;;;;;;;;;;16.60;99.90;;;;;;5019464;28;20319;-79
2022/05/28 10:30:31;;;;;;;;;;;16.50;99.90;;;;;;5016231;28;20019;-78
2022/05/28 10:32:57;;;;;;;;;;;16.40;99.90;;;;;;5016946;28;20422;-78
2022/05/28 10:35:25;;;;;;;;;;;16.10;99.90;;;;;;5011765;28;20321;-79
2022/05/28 10:37:51;;;;;;;;;;;15.80;99.90;;;;;;5002555;28;20499;-80
2022/05/28 10:40:22;;;;;;;;;;;15.70;99.90;;;;;;5007777;28;20066;-79
2022/05/28 10:42:48;;;;;;;;;;;15.30;99.90;;;;;;5003929;28;20747;-80
2022/05/28 10:45:18;;;;;;;;;;;14.80;99.90;;;;;;5005042;28;19932;-79
2022/05/28 10:48:03;;;;;;;;;;;14.50;99.90;;;;;;5001541;28;19932;-77
2022/05/28 10:50:49;;;;;;;;;;;14.20;99.90;;;;;;4996417;28;20301;-79
2022/05/28 10:53:30;;;;;;;;;;;14.10;99.90;;;;;;5012283;28;19940;-80
2022/05/28 10:55:56;;;;;;;;;;;14.40;99.90;;;;;;4993323;28;19935;-79
2022/05/28 10:58:24;;;;;;;;;;;14.50;99.90;;;;;;4993042;28;19936;-78
2022/05/28 11:01:04;;;;;;;;;;;14.60;99.90;;;;;;5015246;28;19932;-79
2022/05/28 11:03:33;;;;;;;;;;;14.90;99.90;;;;;;5012331;28;20023;-79
2022/05/28 11:06:00;;;;;;;;;;;15.50;99.90;;;;;;4996460;28;20493;-79
2022/05/28 11:08:31;;;;;;;;;;;16.00;99.90;;;;;;5005453;28;19933;-77
2022/05/28 11:11:12;;;;;;;;;;;16.20;99.90;;;;;;5018437;28;19929;-78
2022/05/28 11:13:38;;;;;;;;;;;16.30;99.90;;;;;;5022868;28;19936;-80
2022/05/28 11:16:17;;;;;;;;;;;16.60;99.90;;;;;;5023731;28;19929;-78
2022/05/28 11:18:52;;;;;;;;;;;16.50;99.90;;;;;;5023655;28;19933;-81
2022/05/28 11:21:31;;;;;;;;;;;15.80;99.90;;;;;;5009756;28;19964;-79
2022/05/28 11:24:04;;;;;;;;;;;15.90;99.90;;;;;;5030781;28;19932;-78
2022/05/28 11:26:49;;;;;;;;;;;15.30;99.90;;;;;;5001140;28;20436;-79
2022/05/28 11:29:23;;;;;;;;;;;14.90;99.90;;;;;;5012817;28;19932;-79
2022/05/28 11:31:58;;;;;;;;;;;14.40;99.90;;;;;;5012201;28;20722;-80
2022/05/28 11:34:26;;;;;;;;;;;14.60;99.90;;;;;;5017030;28;20003;-77
2022/05/28 11:36:56;;;;;;;;;;;14.80;99.90;;;;;;5016974;28;19929;-79
2022/05/28 11:39:24;;;;;;;;;;;14.80;99.90;;;;;;5000683;28;19928;-79
2022/05/28 11:41:50;;;;;;;;;;;15.10;99.90;;;;;;5016097;28;19929;-79
2022/05/28 11:44:22;;;;;;;;;;;15.20;99.90;;;;;;4997448;28;19940;-79
2022/05/28 11:46:59;;;;;;;;;;;15.20;99.90;;;;;;5012579;28;19928;-79
2022/05/28 11:52:21;;;;;;;;;;;15.20;99.90;;;;;;5009923;28;20648;-78
2022/05/28 11:54:59;;;;;;;;;;;15.20;99.90;;;;;;5011625;28;19929;-78
2022/05/28 11:57:30;;;;;;;;;;;15.50;99.90;;;;;;4996362;28;19990;-80
2022/05/28 11:59:57;;;;;;;;;;;16.30;99.90;;;;;;4994897;28;19936;-77
2022/05/28 12:02:24;;;;;;;;;;;16.70;99.90;;;;;;4994681;28;19940;-79
2022/05/28 12:04:50;;;;;;;;;;;17.30;99.90;;;;;;5013778;28;20403;-81
2022/05/28 12:07:36;;;;;;;;;;;17.50;99.90;;;;;;4997253;28;19924;-79
2022/05/28 12:10:08;;;;;;;;;;;17.00;99.90;;;;;;4997411;28;19989;-79
2022/05/28 12:12:50;;;;;;;;;;;16.60;99.90;;;;;;5000088;28;19936;-79
2022/05/28 12:15:16;;;;;;;;;;;16.40;99.90;;;;;;4999623;28;19968;-80
2022/05/28 12:17:54;;;;;;;;;;;15.90;99.90;;;;;;5015764;28;20027;-80
2022/05/28 12:20:27;;;;;;;;;;;16.30;99.90;;;;;;5014052;28;19929;-80
2022/05/28 12:22:55;;;;;;;;;;;16.30;99.90;;;;;;5013618;28;19955;-78
2022/05/28 12:25:26;;;;;;;;;;;16.40;99.90;;;;;;5000746;28;19929;-80
2022/05/28 12:27:55;;;;;;;;;;;16.20;99.90;;;;;;5002046;28;20120;-80
2022/05/28 12:30:26;;;;;;;;;;;16.70;99.90;;;;;;5013626;28;19935;-79
2022/05/28 12:32:52;;;;;;;;;;;17.40;99.90;;;;;;5013644;28;19943;-79
2022/05/28 12:35:17;;;;;;;;;;;18.10;99.90;;;;;;4988671;28;19929;-77
2022/05/28 12:37:52;;;;;;;;;;;18.20;99.90;;;;;;4992275;28;19928;-79
2022/05/28 12:40:18;;;;;;;;;;;18.20;99.90;;;;;;4998294;28;19929;-79
2022/05/28 12:42:43;;;;;;;;;;;18.40;99.90;;;;;;5018914;28;19951;-78
2022/05/28 12:45:31;;;;;;;;;;;19.00;99.90;;;;;;4999687;28;19935;-80
2022/05/28 12:48:06;;;;;;;;;;;19.20;99.90;;;;;;5007216;28;20360;-81
2022/05/28 12:50:37;;;;;;;;;;;19.30;99.90;;;;;;5023930;28;20003;-80
2022/05/28 12:53:06;;;;;;;;;;;18.90;99.90;;;;;;5024473;28;20665;-80
2022/05/28 12:55:32;;;;;;;;;;;18.00;99.90;;;;;;5023811;28;19940;-81
2022/05/28 12:58:07;;;;;;;;;;;17.30;99.90;;;;;;5018904;28;19929;-80
2022/05/28 13:00:48;;;;;;;;;;;16.60;99.90;;;;;;5012961;28;19939;-80
2022/05/28 13:03:15;;;;;;;;;;;16.00;99.90;;;;;;5000046;28;19964;-79
2022/05/28 13:05:43;;;;;;;;;;;16.00;99.90;;;;;;5015600;28;20794;-79
2022/05/28 13:08:22;;;;;;;;;;;15.90;99.90;;;;;;5012454;28;20588;-81
2022/05/28 13:10:50;;;;;;;;;;;15.80;99.90;;;;;;5014195;28;21598;-81
2022/05/28 13:13:25;;;;;;;;;;;15.80;99.90;;;;;;5013348;28;19940;-79
2022/05/28 13:15:57;;;;;;;;;;;16.40;99.90;;;;;;5012870;28;19936;-82
2022/05/28 13:18:26;;;;;;;;;;;16.40;99.90;;;;;;5011606;28;19933;-79
2022/05/28 13:21:10;;;;;;;;;;;16.70;99.90;;;;;;5012174;28;19932;-80
2022/05/28 13:23:42;;;;;;;;;;;16.80;99.90;;;;;;5017817;28;19928;-82
2022/05/28 13:26:10;;;;;;;;;;;17.50;99.90;;;;;;5011987;28;19935;-80
2022/05/28 13:28:48;;;;;;;;;;;17.80;99.90;;;;;;5020415;28;19928;-81
2022/05/28 13:31:16;;;;;;;;;;;18.20;99.90;;;;;;5016560;28;20382;-79
2022/05/28 13:33:42;;;;;;;;;;;18.10;99.90;;;;;;5022704;28;20828;-80
2022/05/28 13:36:12;;;;;;;;;;;18.30;99.90;;;;;;5019664;28;19933;-81
2022/05/28 13:38:39;;;;;;;;;;;17.60;99.90;;;;;;5025281;28;20031;-82
2022/05/28 13:41:12;;;;;;;;;;;18.20;99.90;;;;;;5025783;28;19932;-83
2022/05/28 13:43:40;;;;;;;;;;;17.70;99.90;;;;;;5024589;28;20274;-83
2022/05/28 13:46:09;;;;;;;;;;;17.30;99.90;;;;;;5022630;28;20029;-81
2022/05/28 13:48:38;;;;;;;;;;;16.80;99.90;;;;;;5024698;28;19936;-81
2022/05/28 13:51:07;;;;;;;;;;;16.60;99.90;;;;;;4999841;28;19929;-82
2022/05/28 13:53:36;;;;;;;;;;;16.40;99.90;;;;;;5003214;28;19932;-81
2022/05/28 13:56:03;;;;;;;;;;;16.10;99.90;;;;;;5013753;28;21191;-81
2022/05/28 13:58:31;;;;;;;;;;;16.70;99.90;;;;;;5023194;28;20125;-83
2022/05/28 14:00:59;;;;;;;;;;;17.30;99.90;;;;;;5007158;28;19991;-81
2022/05/28 14:03:30;;;;;;;;;;;17.80;99.90;;;;;;5022476;28;19929;-81
2022/05/28 14:05:55;;;;;;;;;;;17.20;99.90;;;;;;5016928;28;19929;-82
2022/05/28 14:08:29;;;;;;;;;;;16.60;99.90;;;;;;5020135;28;20472;-82
2022/05/28 14:11:03;;;;;;;;;;;16.70;99.90;;;;;;5010435;28;19928;-79
2022/05/28 14:13:31;;;;;;;;;;;16.60;99.90;;;;;;5004813;28;19935;-81
2022/05/28 14:15:58;;;;;;;;;;;16.40;99.90;;;;;;5001721;28;19973;-80
2022/05/28 14:18:25;;;;;;;;;;;16.20;99.90;;;;;;5022395;28;19935;-80
2022/05/28 14:21:02;;;;;;;;;;;15.90;99.90;;;;;;5019157;28;19933;-80
2022/05/28 14:23:27;;;;;;;;;;;15.80;99.90;;;;;;5021545;28;19929;-81
2022/05/28 14:25:53;;;;;;;;;;;15.90;99.90;;;;;;5017713;28;19990;-80
2022/05/28 14:28:20;;;;;;;;;;;16.10;99.90;;;;;;5003396;28;19929;-80
2022/05/28 14:30:46;;;;;;;;;;;16.60;99.90;;;;;;5020238;28;19925;-81